首页
METAR-TAF:

METAR-TAF

机场 :

库格鲁克图克, 努那武特, 加拿大

纬度: 67-49N, 经度: 115-08W, 海拔: 22米

当前天气观测

该预报发布于15分钟前的06:00 UTC
风速4节,风向东北
温度 -22°C
湿度 84%
气压 1018 hPa
能見度: 24.1公里
多云层高于3500英尺
小雪

METAR: CYCO 250600Z 04004KT 15SM -SN BKN035 M22/M24 A3007 RMK SC7 SLP189

时间: 23:15 (06:15 UTC)

预报

该预报发布于5小时和37分钟前的00:38 UTC
预报有效从25日的 01点(UTC)到 25日的 13点(UTC)
风速3节,风向多变
能見度: 10公里
多云层高于2500英尺
阴天层高于9000英尺
小雪
短暂存在
从 25日的 01点(UTC)到 25日的 13点(UTC)
能見度: 8.0公里
阴天层高于2000英尺
小雪
成为
从 25日的 04点(UTC)到 25日的 06点(UTC)
风速8节,风向

TAF: CYCO 250038Z 2501/2513 VRB03KT P6SM -SN BKN025 OVC090 TEMPO 2501/2513 5SM -SN OVC020 BECMG 2504/2506 08008KT RMK NXT FCST BY 250700Z

超过4000个机场的气象观测和天气预报(METAR&TAF报告)。

可查询的气象台以黄色和红色小点在地图上表示。

将鼠标移到小点上方,可查看气象台名称。

然后点击查看天气观测和预报。

如需切换地图:点击带黑十字的绿色按钮放大地图;点击带横线的绿色按钮缩小地图;或者点击绿色箭头查看邻近地区的地图。


METAR-TAF: